Darstellungsparameter: Aktuell verwendete Einstellungen:
Skalierung der Graphiken ... ?
xyx+y,   Skalierungsfaktor:      Skalierung: Modus: x, Faktor: 1
Darstellungszeitraum ... ?
Vom - - bis: - -   Zeitraum: 26.02.2018 - 26.02.2018
Min/Max/Avg-Anzeige ... ?
Zeige MMA aktuell
Zeige MMA Monat
Zeige MMA alles
Zeige --A aktuell
Zeige --A Monat
Zeige --A alles
Keine MMA-Anzeige
MMA:
Average (ber die Originaldaten)
MMA-Basis: 26.02.2018 - 26.02.2018
Quicknavigation für Darstellung... ?
Tage:      1T, 2T, 3T, 5T -1T -2T -3T -5T +1T +2T +3T +5T
Wochen: 1W, 2W, 3W -1W -2W -3W +1W +2W +3W
Monate: 1M, 3M, 6M -1M -3M -6M +1M +3M +6M
Jahre:    1J, 3J, 5J, 10J -1J -3J -5J -10J +1J +3J +5J +10J
Nutze für die Darstellung ... ?
Originaldaten oder Mittelwerte auf ...
Stundenbasis Tagesbasis Wochenbasis
Monatsbasis Jahresbasis      Datenbasis: Original-Daten
Darstellen als:
Statistik (Auto) Statistik J:M      Darstellung:
Zur Graphik,    zurück zur Übersicht aller Sensoren.
 
Tabellarische Datenbersicht: ?
 
Sensor: Nr:Datum:Temp:Abs-Feuchte:Windchill:Wind:
Aussen-T/F 1 26-02-2018 00:00:00 -3.1 C 2.15 g/m*3 -5.76 C 6.4 km/h
2 26-02-2018 00:05:00 -3.1 C 2.18 g/m*3 -5.76 C 6.4 km/h
3 26-02-2018 00:10:00 -3.1 C 2.18 g/m*3 -8.46 C 16.1 km/h
4 26-02-2018 00:15:00 -3.2 C 2.13 g/m*3 -9.67 C 22.5 km/h
5 26-02-2018 00:20:00 -3.2 C 2.17 g/m*3 -9.67 C 22.5 km/h
6 26-02-2018 00:25:00 -3.2 C 2.17 g/m*3 -7.9 C 12.9 km/h
7 26-02-2018 00:30:00 -3.3 C 2.15 g/m*3 -5.99 C 6.4 km/h
8 26-02-2018 00:35:00 -3.3 C 2.19 g/m*3 -3.3 C 3.2 km/h
9 26-02-2018 00:40:00 -3.4 C 2.18 g/m*3 -7.74 C 11.3 km/h
10 26-02-2018 00:45:00 -3.4 C 2.18 g/m*3 -7.74 C 11.3 km/h
11 26-02-2018 00:50:00 -3.5 C 2.16 g/m*3 -3.5 C 4.8 km/h
12 26-02-2018 00:55:00 -3.6 C 2.18 g/m*3 -3.6 C 4.8 km/h
13 26-02-2018 01:00:00 -3.7 C 2.17 g/m*3 -7.64 C 9.7 km/h
14 26-02-2018 01:05:00 -3.8 C 2.19 g/m*3 -3.8 C 4.8 km/h
15 26-02-2018 01:10:00 -4 C 2.19 g/m*3 -4 C 1.6 km/h
16 26-02-2018 01:15:00 -4.2 C 2.2 g/m*3 -4.2 C 1.6 km/h
17 26-02-2018 01:20:00 -4.3 C 2.22 g/m*3 -4.3 C 4.8 km/h
18 26-02-2018 01:25:00 -4.5 C 2.19 g/m*3 -4.5 C 1.6 km/h
19 26-02-2018 01:30:00 -4.6 C 2.21 g/m*3 -4.6 C 0 km/h
20 26-02-2018 01:35:00 -4.7 C 2.19 g/m*3 -4.7 C 4.8 km/h
21 26-02-2018 01:40:00 -4.8 C 2.18 g/m*3 -7.73 C 6.4 km/h
22 26-02-2018 01:45:00 -4.8 C 2.21 g/m*3 -4.8 C 3.2 km/h
23 26-02-2018 01:50:00 -4.7 C 2.19 g/m*3 -8.84 C 9.7 km/h
24 26-02-2018 01:55:00 -4.7 C 2.23 g/m*3 -4.7 C 3.2 km/h
25 26-02-2018 02:00:00 -4.8 C 2.21 g/m*3 -4.8 C 3.2 km/h
Sensor: Nr:Datum:Temp:Abs-Feuchte:Windchill:Wind:
Aussen-T/F 26 26-02-2018 02:05:00 -4.8 C 2.25 g/m*3 -4.8 C 3.2 km/h
27 26-02-2018 02:10:00 -4.9 C 2.26 g/m*3 -4.9 C 3.2 km/h
28 26-02-2018 02:15:00 -5.1 C 2.23 g/m*3 -5.1 C 4.8 km/h
29 26-02-2018 02:20:00 -5.1 C 2.23 g/m*3 -5.1 C 1.6 km/h
30 26-02-2018 02:25:00 -5.1 C 2.23 g/m*3 -5.1 C 1.6 km/h
31 26-02-2018 02:30:00 -5.1 C 2.26 g/m*3 -5.1 C 3.2 km/h
32 26-02-2018 02:35:00 -5.2 C 2.25 g/m*3 -5.2 C 0 km/h
33 26-02-2018 02:40:00 -5.4 C 2.25 g/m*3 -5.4 C 1.6 km/h
34 26-02-2018 02:45:00 -5.5 C 2.27 g/m*3 -5.5 C 0 km/h
35 26-02-2018 02:50:00 -5.6 C 2.25 g/m*3 -5.6 C 0 km/h
36 26-02-2018 02:55:00 -5.7 C 2.27 g/m*3 -5.7 C 1.6 km/h
37 26-02-2018 03:00:00 -5.8 C 2.28 g/m*3 -5.8 C 1.6 km/h
38 26-02-2018 03:05:00 -5.8 C 2.31 g/m*3 -5.8 C 1.6 km/h
39 26-02-2018 03:10:00 -5.8 C 2.31 g/m*3 -5.8 C 0 km/h
40 26-02-2018 03:15:00 -5.9 C 2.3 g/m*3 -5.9 C 1.6 km/h
41 26-02-2018 03:20:00 -6 C 2.31 g/m*3 -6 C 3.2 km/h
42 26-02-2018 03:25:00 -6.1 C 2.3 g/m*3 -6.1 C 3.2 km/h
43 26-02-2018 03:30:00 -6.1 C 2.33 g/m*3 -6.1 C 1.6 km/h
44 26-02-2018 03:35:00 -6.2 C 2.31 g/m*3 -6.2 C 1.6 km/h
45 26-02-2018 03:40:00 -6.3 C 2.32 g/m*3 -6.3 C 3.2 km/h
46 26-02-2018 03:45:00 -6.3 C 2.32 g/m*3 -6.3 C 0 km/h
47 26-02-2018 03:50:00 -6.3 C 2.35 g/m*3 -6.3 C 1.6 km/h
48 26-02-2018 03:55:00 -6.4 C 2.34 g/m*3 -6.4 C 4.8 km/h
49 26-02-2018 04:00:00 -6.4 C 2.34 g/m*3 -6.4 C 0 km/h
50 26-02-2018 04:05:00 -6.3 C 2.35 g/m*3 -10.74 C 9.7 km/h
Sensor: Nr:Datum:Temp:Abs-Feuchte:Windchill:Wind:
Aussen-T/F 51 26-02-2018 04:10:00 -6.3 C 2.35 g/m*3 -6.3 C 1.6 km/h
52 26-02-2018 04:15:00 -6.2 C 2.34 g/m*3 -6.2 C 3.2 km/h
53 26-02-2018 04:20:00 -6.2 C 2.34 g/m*3 -6.2 C 3.2 km/h
54 26-02-2018 04:25:00 -6.2 C 2.34 g/m*3 -6.2 C 4.8 km/h
55 26-02-2018 04:30:00 -6.2 C 2.34 g/m*3 -6.2 C 0 km/h
56 26-02-2018 04:35:00 -6.2 C 2.31 g/m*3 -10.06 C 8.1 km/h
57 26-02-2018 04:40:00 -6 C 2.34 g/m*3 -6 C 1.6 km/h
58 26-02-2018 04:45:00 -6 C 2.31 g/m*3 -6 C 1.6 km/h
59 26-02-2018 04:50:00 -6.1 C 2.33 g/m*3 -6.1 C 0 km/h
60 26-02-2018 04:55:00 -6.2 C 2.31 g/m*3 -6.2 C 3.2 km/h
61 26-02-2018 05:00:00 -6.2 C 2.28 g/m*3 -6.2 C 0 km/h
62 26-02-2018 05:05:00 -6.2 C 2.28 g/m*3 -6.2 C 1.6 km/h
63 26-02-2018 05:10:00 -6.3 C 2.26 g/m*3 -6.3 C 0 km/h
64 26-02-2018 05:15:00 -6.4 C 2.28 g/m*3 -6.4 C 1.6 km/h
65 26-02-2018 05:20:00 -6.5 C 2.29 g/m*3 -6.5 C 1.6 km/h
66 26-02-2018 05:25:00 -6.6 C 2.27 g/m*3 -6.6 C 1.6 km/h
67 26-02-2018 05:30:00 -6.7 C 2.26 g/m*3 -6.7 C 0 km/h
68 26-02-2018 05:35:00 -6.8 C 2.24 g/m*3 -6.8 C 0 km/h
69 26-02-2018 05:40:00 -6.9 C 2.25 g/m*3 -6.9 C 0 km/h
70 26-02-2018 05:45:00 -6.9 C 2.25 g/m*3 -6.9 C 1.6 km/h
71 26-02-2018 05:50:00 -6.9 C 2.25 g/m*3 -6.9 C 1.6 km/h
72 26-02-2018 05:55:00 -6.9 C 2.25 g/m*3 -6.9 C 1.6 km/h
73 26-02-2018 06:00:00 -7 C 2.24 g/m*3 -7 C 0 km/h
74 26-02-2018 06:05:00 -7.1 C 2.25 g/m*3 -7.1 C 0 km/h
75 26-02-2018 06:10:00 -7.1 C 2.25 g/m*3 -7.1 C 1.6 km/h
Sensor: Nr:Datum:Temp:Abs-Feuchte:Windchill:Wind:
Aussen-T/F 76 26-02-2018 06:15:00 -7.1 C 2.22 g/m*3 -7.1 C 1.6 km/h
77 26-02-2018 06:20:00 -7.2 C 2.23 g/m*3 -7.2 C 0 km/h
78 26-02-2018 06:25:00 -7.2 C 2.23 g/m*3 -7.2 C 0 km/h
79 26-02-2018 06:30:00 -7.2 C 2.23 g/m*3 -7.2 C 1.6 km/h
80 26-02-2018 06:35:00 -7.2 C 2.23 g/m*3 -7.2 C 0 km/h
81 26-02-2018 06:40:00 -7.2 C 2.23 g/m*3 -7.2 C 1.6 km/h
82 26-02-2018 06:45:00 -7.2 C 2.23 g/m*3 -7.2 C 1.6 km/h
83 26-02-2018 06:50:00 -7.2 C 2.23 g/m*3 -7.2 C 0 km/h
84 26-02-2018 06:55:00 -7.3 C 2.25 g/m*3 -7.3 C 0 km/h
85 26-02-2018 07:00:00 -7.3 C 2.25 g/m*3 -7.3 C 0 km/h
86 26-02-2018 07:05:00 -7.3 C 2.25 g/m*3 -7.3 C 0 km/h
87 26-02-2018 07:10:00 -7.3 C 2.25 g/m*3 -7.3 C 0 km/h
88 26-02-2018 07:15:00 -7.3 C 2.25 g/m*3 -7.3 C 1.6 km/h
89 26-02-2018 07:20:00 -7.4 C 2.23 g/m*3 -7.4 C 0 km/h
90 26-02-2018 07:25:00 -7.4 C 2.23 g/m*3 -7.4 C 0 km/h
91 26-02-2018 07:30:00 -7.4 C 2.23 g/m*3 -7.4 C 0 km/h
92 26-02-2018 07:35:00 -7.4 C 2.23 g/m*3 -7.4 C 0 km/h
93 26-02-2018 07:40:00 -7.4 C 2.23 g/m*3 -7.4 C 0 km/h
94 26-02-2018 07:45:00 -7.4 C 2.23 g/m*3 -7.4 C 0 km/h
95 26-02-2018 07:50:00 -7.4 C 2.26 g/m*3 -7.4 C 0 km/h
96 26-02-2018 07:55:00 -7.5 C 2.24 g/m*3 -7.5 C 0 km/h
97 26-02-2018 08:00:00 -7.5 C 2.24 g/m*3 -7.5 C 0 km/h
98 26-02-2018 08:05:00 -7.5 C 2.27 g/m*3 -7.5 C 0 km/h
99 26-02-2018 08:10:00 -7.6 C 2.25 g/m*3 -7.6 C 0 km/h
100 26-02-2018 08:15:00 -7.6 C 2.25 g/m*3 -7.6 C 0 km/h
Sensor: Nr:Datum:Temp:Abs-Feuchte:Windchill:Wind:
Aussen-T/F 101 26-02-2018 08:20:00 -7.5 C 2.3 g/m*3 -7.5 C 0 km/h
102 26-02-2018 08:25:00 -7.4 C 2.32 g/m*3 -7.4 C 0 km/h
103 26-02-2018 08:30:00 -7.3 C 2.33 g/m*3 -7.3 C 0 km/h
104 26-02-2018 08:35:00 -7.3 C 2.3 g/m*3 -7.3 C 0 km/h
105 26-02-2018 08:40:00 -7.2 C 2.32 g/m*3 -7.2 C 0 km/h
106 26-02-2018 08:45:00 -7.1 C 2.34 g/m*3 -7.1 C 0 km/h
107 26-02-2018 08:50:00 -6.9 C 2.37 g/m*3 -6.9 C 1.6 km/h
108 26-02-2018 08:55:00 -6.7 C 2.41 g/m*3 -6.7 C 0 km/h
109 26-02-2018 09:00:00 -6.5 C 2.44 g/m*3 -6.5 C 0 km/h
110 26-02-2018 09:05:00 -6.2 C 2.47 g/m*3 -6.2 C 3.2 km/h
111 26-02-2018 09:10:00 -5.9 C 2.46 g/m*3 -5.9 C 4.8 km/h
112 26-02-2018 09:15:00 -5.6 C 2.48 g/m*3 -9.35 C 8.1 km/h
113 26-02-2018 09:20:00 -5.4 C 2.45 g/m*3 -8.42 C 6.4 km/h
114 26-02-2018 09:25:00 -5.3 C 2.47 g/m*3 -9 C 8.1 km/h
115 26-02-2018 09:30:00 -5.2 C 2.45 g/m*3 -10.33 C 12.9 km/h
116 26-02-2018 09:35:00 -5.1 C 2.47 g/m*3 -10.21 C 12.9 km/h
117 26-02-2018 09:40:00 -5 C 2.49 g/m*3 -9.19 C 9.7 km/h
118 26-02-2018 09:45:00 -4.9 C 2.5 g/m*3 -9.55 C 11.3 km/h
119 26-02-2018 09:50:00 -4.9 C 2.5 g/m*3 -10.69 C 16.1 km/h
120 26-02-2018 09:55:00 -4.9 C 2.5 g/m*3 -9.07 C 9.7 km/h
121 26-02-2018 10:00:00 -4.8 C 2.52 g/m*3 -10.88 C 17.7 km/h
122 26-02-2018 10:05:00 -4.8 C 2.52 g/m*3 -9.43 C 11.3 km/h
123 26-02-2018 10:10:00 -4.8 C 2.56 g/m*3 -9.43 C 11.3 km/h
124 26-02-2018 10:15:00 -4.7 C 2.54 g/m*3 -9.72 C 12.9 km/h
125 26-02-2018 10:20:00 -4.4 C 2.56 g/m*3 -8.95 C 11.3 km/h
Sensor: Nr:Datum:Temp:Abs-Feuchte:Windchill:Wind:
Aussen-T/F 126 26-02-2018 10:25:00 -4.3 C 2.54 g/m*3 -7.82 C 8.1 km/h
127 26-02-2018 10:30:00 -4.1 C 2.54 g/m*3 -6.92 C 6.4 km/h
128 26-02-2018 10:35:00 -3.8 C 2.56 g/m*3 -7.24 C 8.1 km/h
129 26-02-2018 10:40:00 -3.6 C 2.52 g/m*3 -7.53 C 9.7 km/h
130 26-02-2018 10:45:00 -3.3 C 2.46 g/m*3 -8.38 C 14.5 km/h
131 26-02-2018 10:50:00 -3 C 2.47 g/m*3 -8.34 C 16.1 km/h
132 26-02-2018 10:55:00 -2.8 C 2.51 g/m*3 -8.09 C 16.1 km/h
133 26-02-2018 11:00:00 -2.9 C 2.41 g/m*3 -9.04 C 20.9 km/h
134 26-02-2018 11:05:00 -3.1 C 2.38 g/m*3 -9.99 C 25.7 km/h
135 26-02-2018 11:10:00 -3.2 C 2.36 g/m*3 -10.12 C 25.7 km/h
136 26-02-2018 11:15:00 -3.2 C 2.4 g/m*3 -8.26 C 14.5 km/h
137 26-02-2018 11:20:00 -3.2 C 2.44 g/m*3 -8.58 C 16.1 km/h
138 26-02-2018 11:25:00 -3.2 C 2.44 g/m*3 -8.58 C 16.1 km/h
139 26-02-2018 11:30:00 -3.1 C 2.42 g/m*3 -7.38 C 11.3 km/h
140 26-02-2018 11:35:00 -3.1 C 2.34 g/m*3 -8.46 C 16.1 km/h
141 26-02-2018 11:40:00 -2.9 C 2.33 g/m*3 -8.79 C 19.3 km/h
142 26-02-2018 11:45:00 -2.6 C 2.38 g/m*3 -9.56 C 27.4 km/h
143 26-02-2018 11:50:00 -2.7 C 2.69 g/m*3 -9.47 C 25.7 km/h
144 26-02-2018 11:55:00 -3.1 C 2.69 g/m*3 -9.99 C 25.7 km/h
145 26-02-2018 12:00:00 -3.2 C 2.63 g/m*3 -9.16 C 19.3 km/h
146 26-02-2018 12:05:00 -3.3 C 2.61 g/m*3 -10.03 C 24.1 km/h
147 26-02-2018 12:10:00 -3.3 C 2.61 g/m*3 -8.02 C 12.9 km/h
148 26-02-2018 12:15:00 -3.3 C 2.58 g/m*3 -8.02 C 12.9 km/h
149 26-02-2018 12:20:00 -3.1 C 2.5 g/m*3 -8.13 C 14.5 km/h
150 26-02-2018 12:25:00 -2.8 C 2.43 g/m*3 -8.66 C 19.3 km/h
Sensor: Nr:Datum:Temp:Abs-Feuchte:Windchill:Wind:
Aussen-T/F 151 26-02-2018 12:30:00 -2.7 C 2.33 g/m*3 -10.06 C 30.6 km/h
152 26-02-2018 12:35:00 -2.6 C 2.3 g/m*3 -8.66 C 20.9 km/h
153 26-02-2018 12:40:00 -2.3 C 2.31 g/m*3 -7.76 C 17.7 km/h
154 26-02-2018 12:45:00 -2 C 2.36 g/m*3 -6.05 C 11.3 km/h
155 26-02-2018 12:50:00 -2.1 C 2.34 g/m*3 -7.22 C 16.1 km/h
156 26-02-2018 12:55:00 -2.2 C 2.37 g/m*3 -8.62 C 24.1 km/h
157 26-02-2018 13:00:00 -2.1 C 2.34 g/m*3 -8.27 C 22.5 km/h
158 26-02-2018 13:05:00 -1.9 C 2.33 g/m*3 -6.66 C 14.5 km/h
159 26-02-2018 13:10:00 -1.8 C 2.35 g/m*3 -7.14 C 17.7 km/h
160 26-02-2018 13:15:00 -1.9 C 2.33 g/m*3 -6.66 C 14.5 km/h
161 26-02-2018 13:20:00 -1.9 C 2.38 g/m*3 -7.26 C 17.7 km/h
162 26-02-2018 13:25:00 -1.9 C 2.38 g/m*3 -7.78 C 20.9 km/h
163 26-02-2018 13:30:00 -2 C 2.4 g/m*3 -7.9 C 20.9 km/h
164 26-02-2018 13:35:00 -2 C 2.49 g/m*3 -7.1 C 16.1 km/h
165 26-02-2018 13:40:00 -2.1 C 2.6 g/m*3 -8.27 C 22.5 km/h
166 26-02-2018 13:45:00 -2.2 C 2.58 g/m*3 -7.91 C 19.3 km/h
167 26-02-2018 13:50:00 -2.2 C 2.58 g/m*3 -8.39 C 22.5 km/h
168 26-02-2018 13:55:00 -2.3 C 2.48 g/m*3 -7.76 C 17.7 km/h
169 26-02-2018 14:00:00 -2.2 C 2.49 g/m*3 -7.34 C 16.1 km/h
170 26-02-2018 14:05:00 -2 C 2.44 g/m*3 -8.36 C 24.1 km/h
171 26-02-2018 14:10:00 -1.8 C 2.44 g/m*3 -7.65 C 20.9 km/h
172 26-02-2018 14:15:00 -1.7 C 2.45 g/m*3 -4.77 C 8.1 km/h
173 26-02-2018 14:20:00 -1.4 C 2.37 g/m*3 -6.04 C 14.5 km/h
174 26-02-2018 14:25:00 -1.4 C 2.29 g/m*3 -7.59 C 24.1 km/h
175 26-02-2018 14:30:00 -1.4 C 2.29 g/m*3 -8 C 27.4 km/h
Sensor: Nr:Datum:Temp:Abs-Feuchte:Windchill:Wind:
Aussen-T/F 176 26-02-2018 14:35:00 -1.5 C 2.23 g/m*3 -7.03 C 19.3 km/h
177 26-02-2018 14:40:00 -1.6 C 2.25 g/m*3 -6.6 C 16.1 km/h
178 26-02-2018 14:45:00 -1.5 C 2.23 g/m*3 -6.17 C 14.5 km/h
179 26-02-2018 14:50:00 -1.5 C 2.27 g/m*3 -6.48 C 16.1 km/h
180 26-02-2018 14:55:00 -1.6 C 2.25 g/m*3 -6.6 C 16.1 km/h
181 26-02-2018 15:00:00 -1.6 C 2.21 g/m*3 -6.89 C 17.7 km/h
182 26-02-2018 15:05:00 -1.5 C 2.27 g/m*3 -7.03 C 19.3 km/h
183 26-02-2018 15:10:00 -1.5 C 2.23 g/m*3 -6.17 C 14.5 km/h
184 26-02-2018 15:15:00 -1.6 C 2.25 g/m*3 -6.6 C 16.1 km/h
185 26-02-2018 15:20:00 -1.8 C 2.31 g/m*3 -7.65 C 20.9 km/h
186 26-02-2018 15:25:00 -1.8 C 2.39 g/m*3 -7.4 C 19.3 km/h
187 26-02-2018 15:30:00 -1.8 C 2.44 g/m*3 -7.4 C 19.3 km/h
188 26-02-2018 15:35:00 -1.9 C 2.46 g/m*3 -8.44 C 25.7 km/h
189 26-02-2018 15:40:00 -2.1 C 2.39 g/m*3 -7.22 C 16.1 km/h
190 26-02-2018 15:45:00 -2.1 C 2.39 g/m*3 -7.22 C 16.1 km/h
191 26-02-2018 15:50:00 -2.1 C 2.34 g/m*3 -9.28 C 30.6 km/h
192 26-02-2018 15:55:00 -2.1 C 2.34 g/m*3 -7.22 C 16.1 km/h
193 26-02-2018 16:00:00 -2.1 C 2.34 g/m*3 -6.56 C 12.9 km/h
194 26-02-2018 16:05:00 -2.1 C 2.26 g/m*3 -9.45 C 32.2 km/h
195 26-02-2018 16:10:00 -2.2 C 2.29 g/m*3 -9.58 C 32.2 km/h
196 26-02-2018 16:15:00 -2.1 C 2.26 g/m*3 -8.03 C 20.9 km/h
197 26-02-2018 16:20:00 -2.1 C 2.26 g/m*3 -7.51 C 17.7 km/h
198 26-02-2018 16:25:00 -2.1 C 2.22 g/m*3 -7.78 C 19.3 km/h
199 26-02-2018 16:30:00 -2.1 C 2.18 g/m*3 -8.49 C 24.1 km/h
200 26-02-2018 16:35:00 -2.2 C 2.12 g/m*3 -8.16 C 20.9 km/h
Sensor: Nr:Datum:Temp:Abs-Feuchte:Windchill:Wind:
Aussen-T/F 201 26-02-2018 16:40:00 -2.2 C 2.16 g/m*3 -8.16 C 20.9 km/h
202 26-02-2018 16:45:00 -2.3 C 2.15 g/m*3 -8.28 C 20.9 km/h
203 26-02-2018 16:50:00 -2.2 C 2.16 g/m*3 -8.62 C 24.1 km/h
204 26-02-2018 16:55:00 -2.1 C 2.22 g/m*3 -6.9 C 14.5 km/h
205 26-02-2018 17:00:00 -1.8 C 2.22 g/m*3 -8.1 C 24.1 km/h
206 26-02-2018 17:05:00 -1.9 C 2.25 g/m*3 -7.53 C 19.3 km/h
207 26-02-2018 17:10:00 -2 C 2.19 g/m*3 -8.14 C 22.5 km/h
208 26-02-2018 17:15:00 -2.1 C 2.18 g/m*3 -6.56 C 12.9 km/h
209 26-02-2018 17:20:00 -2.1 C 2.13 g/m*3 -6.56 C 12.9 km/h
210 26-02-2018 17:25:00 -2.2 C 2.16 g/m*3 -7.34 C 16.1 km/h
211 26-02-2018 17:30:00 -2.2 C 2.2 g/m*3 -6.68 C 12.9 km/h
212 26-02-2018 17:35:00 -2.3 C 2.31 g/m*3 -7.76 C 17.7 km/h
213 26-02-2018 17:40:00 -2.4 C 2.34 g/m*3 -7.27 C 14.5 km/h
214 26-02-2018 17:45:00 -2.6 C 2.26 g/m*3 -7.84 C 16.1 km/h
215 26-02-2018 17:50:00 -2.6 C 2.3 g/m*3 -6.33 C 9.7 km/h
216 26-02-2018 17:55:00 -2.6 C 2.3 g/m*3 -7.17 C 12.9 km/h
217 26-02-2018 18:00:00 -2.7 C 2.29 g/m*3 -7.29 C 12.9 km/h
218 26-02-2018 18:05:00 -2.7 C 2.25 g/m*3 -6.45 C 9.7 km/h
219 26-02-2018 18:10:00 -2.8 C 2.23 g/m*3 -7.76 C 14.5 km/h
220 26-02-2018 18:15:00 -2.8 C 2.23 g/m*3 -7.76 C 14.5 km/h
221 26-02-2018 18:20:00 -2.8 C 2.27 g/m*3 -7.02 C 11.3 km/h
222 26-02-2018 18:25:00 -2.9 C 2.29 g/m*3 -5.53 C 6.4 km/h
223 26-02-2018 18:30:00 -2.9 C 2.29 g/m*3 -7.53 C 12.9 km/h
224 26-02-2018 18:35:00 -2.9 C 2.33 g/m*3 -7.14 C 11.3 km/h
225 26-02-2018 18:40:00 -2.9 C 2.41 g/m*3 -7.53 C 12.9 km/h
Sensor: Nr:Datum:Temp:Abs-Feuchte:Windchill:Wind:
Aussen-T/F 226 26-02-2018 18:45:00 -3 C 2.4 g/m*3 -7.26 C 11.3 km/h
227 26-02-2018 18:50:00 -3.1 C 2.46 g/m*3 -6.41 C 8.1 km/h
228 26-02-2018 18:55:00 -3.2 C 2.44 g/m*3 -3.2 C 4.8 km/h
229 26-02-2018 19:00:00 -3.4 C 2.44 g/m*3 -3.4 C 4.8 km/h
230 26-02-2018 19:05:00 -3.5 C 2.43 g/m*3 -3.5 C 1.6 km/h
231 26-02-2018 19:10:00 -3.6 C 2.45 g/m*3 -3.6 C 3.2 km/h
232 26-02-2018 19:15:00 -3.6 C 2.48 g/m*3 -3.6 C 0 km/h
233 26-02-2018 19:20:00 -3.7 C 2.47 g/m*3 -3.7 C 1.6 km/h
234 26-02-2018 19:25:00 -3.7 C 2.5 g/m*3 -3.7 C 3.2 km/h
235 26-02-2018 19:30:00 -3.8 C 2.52 g/m*3 -3.8 C 1.6 km/h
236 26-02-2018 19:35:00 -3.8 C 2.52 g/m*3 -3.8 C 0 km/h
237 26-02-2018 19:40:00 -3.8 C 2.52 g/m*3 -3.8 C 3.2 km/h
238 26-02-2018 19:45:00 -3.7 C 2.54 g/m*3 -9.51 C 17.7 km/h
239 26-02-2018 19:50:00 -3.6 C 2.6 g/m*3 -7 C 8.1 km/h
240 26-02-2018 19:55:00 -3.5 C 2.62 g/m*3 -7.41 C 9.7 km/h
241 26-02-2018 20:00:00 -3.5 C 2.65 g/m*3 -7.86 C 11.3 km/h
242 26-02-2018 20:05:00 -3.6 C 2.63 g/m*3 -6.34 C 6.4 km/h
243 26-02-2018 20:10:00 -3.7 C 2.62 g/m*3 -3.7 C 0 km/h
244 26-02-2018 20:15:00 -3.8 C 2.63 g/m*3 -3.8 C 4.8 km/h
245 26-02-2018 20:20:00 -3.9 C 2.62 g/m*3 -3.9 C 1.6 km/h
246 26-02-2018 20:25:00 -4.1 C 2.62 g/m*3 -4.1 C 3.2 km/h
247 26-02-2018 20:30:00 -4.2 C 2.63 g/m*3 -4.2 C 0 km/h
248 26-02-2018 20:35:00 -4.2 C 2.67 g/m*3 -4.2 C 1.6 km/h
249 26-02-2018 20:40:00 -4.3 C 2.65 g/m*3 -4.3 C 0 km/h
250 26-02-2018 20:45:00 -4.3 C 2.65 g/m*3 -4.3 C 3.2 km/h
Sensor: Nr:Datum:Temp:Abs-Feuchte:Windchill:Wind:
Aussen-T/F 251 26-02-2018 20:50:00 -4.3 C 2.69 g/m*3 -4.3 C 1.6 km/h
252 26-02-2018 20:55:00 -4.3 C 2.69 g/m*3 -4.3 C 3.2 km/h
253 26-02-2018 21:00:00 -4.2 C 2.67 g/m*3 -4.2 C 3.2 km/h
254 26-02-2018 21:05:00 -4.1 C 2.65 g/m*3 -7.59 C 8.1 km/h
255 26-02-2018 21:10:00 -3.9 C 2.69 g/m*3 -6.69 C 6.4 km/h
256 26-02-2018 21:15:00 -3.8 C 2.63 g/m*3 -7.76 C 9.7 km/h
257 26-02-2018 21:20:00 -3.7 C 2.65 g/m*3 -3.7 C 4.8 km/h
258 26-02-2018 21:25:00 -3.7 C 2.62 g/m*3 -7.12 C 8.1 km/h
259 26-02-2018 21:30:00 -3.7 C 2.62 g/m*3 -7.64 C 9.7 km/h
260 26-02-2018 21:35:00 -3.6 C 2.63 g/m*3 -6.34 C 6.4 km/h
261 26-02-2018 21:40:00 -3.6 C 2.6 g/m*3 -7 C 8.1 km/h
262 26-02-2018 21:45:00 -3.5 C 2.62 g/m*3 -6.88 C 8.1 km/h
263 26-02-2018 21:50:00 -3.5 C 2.62 g/m*3 -7.41 C 9.7 km/h
264 26-02-2018 21:55:00 -3.5 C 2.62 g/m*3 -7.41 C 9.7 km/h
265 26-02-2018 22:00:00 -3.5 C 2.62 g/m*3 -6.88 C 8.1 km/h
266 26-02-2018 22:05:00 -3.5 C 2.62 g/m*3 -6.88 C 8.1 km/h
267 26-02-2018 22:10:00 -3.5 C 2.62 g/m*3 -6.22 C 6.4 km/h
268 26-02-2018 22:15:00 -3.5 C 2.62 g/m*3 -6.22 C 6.4 km/h
269 26-02-2018 22:20:00 -3.5 C 2.62 g/m*3 -8.26 C 12.9 km/h
270 26-02-2018 22:25:00 -3.5 C 2.65 g/m*3 -7.41 C 9.7 km/h
271 26-02-2018 22:30:00 -3.5 C 2.65 g/m*3 -7.41 C 9.7 km/h
272 26-02-2018 22:35:00 -3.6 C 2.67 g/m*3 -7.98 C 11.3 km/h
273 26-02-2018 22:40:00 -3.6 C 2.71 g/m*3 -7.53 C 9.7 km/h
274 26-02-2018 22:45:00 -3.6 C 2.75 g/m*3 -7.53 C 9.7 km/h
275 26-02-2018 22:50:00 -3.6 C 2.75 g/m*3 -8.38 C 12.9 km/h
Sensor: Nr:Datum:Temp:Abs-Feuchte:Windchill:Wind:
Aussen-T/F 276 26-02-2018 22:55:00 -3.6 C 2.79 g/m*3 -7.53 C 9.7 km/h
277 26-02-2018 23:00:00 -3.7 C 2.8 g/m*3 -8.1 C 11.3 km/h
278 26-02-2018 23:05:00 -3.7 C 2.84 g/m*3 -8.1 C 11.3 km/h
279 26-02-2018 23:10:00 -3.8 C 2.93 g/m*3 -7.76 C 9.7 km/h
280 26-02-2018 23:15:00 -3.9 C 2.95 g/m*3 -7.35 C 8.1 km/h
281 26-02-2018 23:20:00 -4 C 3 g/m*3 -7.47 C 8.1 km/h
282 26-02-2018 23:25:00 -4.1 C 3.01 g/m*3 -4.1 C 3.2 km/h
283 26-02-2018 23:30:00 -4.1 C 3.05 g/m*3 -4.1 C 4.8 km/h
284 26-02-2018 23:35:00 -4.2 C 3.07 g/m*3 -4.2 C 1.6 km/h
285 26-02-2018 23:40:00 -4.2 C 3.07 g/m*3 -4.2 C 1.6 km/h
286 26-02-2018 23:45:00 -4.2 C 3.07 g/m*3 -4.2 C 1.6 km/h
287 26-02-2018 23:50:00 -4.2 C 3.1 g/m*3 -4.2 C 0 km/h
288 26-02-2018 23:55:00 -4.2 C 3.1 g/m*3 -4.2 C 0 km/h

Legende:
   Min
   Max


Maximal/Minimal-Werte vom 26.02.2018 - 26.02.2018

Sensor Min Max Avg
Temp
(Aussen-T/F)
-7.6 °C
26-02-2018  08:10:00
-1.4 °C
26-02-2018  14:20:00
-4.19 °C
Abs-Feuchte
(Aussen-T/F)
2.12 g/m*3
26-02-2018  16:35:00
3.1 g/m*3
26-02-2018  23:50:00
2.39 g/m*3
Windchill
(Aussen-T/F)
-10.88 C
26-02-2018  10:00:00
-3.2 C
26-02-2018  18:55:00
-6.9 C

Die Daten stammen von einer Davis Vantage Pro 2 Wetter-Station und werden unter Linux mit der Software wview2wettercgi und aufbereitet. Alle Angaben erfolgen ohne Gewähr für ihre Vollständigkeit oder Richtigkeit.
Kontakt: Rainer Krienke krienke@uni-koblenz.de . Meine Webseiten an der Uni Koblenz oder privat.
Version: $Revision: 0.78 $